createdAt,value
2018-12-22T00:00:23.159Z,10.60
2018-12-22T00:02:51.684Z,10.60
2018-12-22T00:05:20.424Z,10.60
2018-12-22T00:07:48.944Z,10.60
2018-12-22T00:10:17.442Z,10.60
2018-12-22T00:12:45.944Z,10.60
2018-12-22T00:15:14.457Z,10.60
2018-12-22T00:17:43.123Z,10.60
2018-12-22T00:20:11.834Z,10.60
2018-12-22T00:22:40.410Z,10.60
2018-12-22T00:25:09.033Z,10.60
2018-12-22T00:27:38.849Z,10.60
2018-12-22T00:30:08.415Z,10.60
2018-12-22T00:32:37.009Z,10.60
2018-12-22T00:35:06.133Z,10.70
2018-12-22T00:37:35.255Z,10.70
2018-12-22T00:40:04.192Z,10.70
2018-12-22T00:42:32.697Z,10.70
2018-12-22T00:45:01.297Z,10.70
2018-12-22T00:47:29.941Z,10.70
2018-12-22T00:49:58.934Z,10.70
2018-12-22T00:52:27.462Z,10.70
2018-12-22T00:54:55.963Z,10.70
2018-12-22T00:57:24.476Z,10.70
2018-12-22T00:59:53.070Z,10.70
2018-12-22T01:02:21.558Z,10.60
2018-12-22T01:04:50.054Z,10.60
2018-12-22T01:07:18.702Z,10.60
2018-12-22T01:09:47.404Z,10.60
2018-12-22T01:12:15.975Z,10.50
2018-12-22T01:14:44.513Z,10.50
2018-12-22T01:17:12.999Z,10.50
2018-12-22T01:19:41.489Z,10.50
2018-12-22T01:22:10.131Z,10.50
2018-12-22T01:24:38.703Z,10.60
2018-12-22T01:27:07.304Z,10.60
2018-12-22T01:29:35.918Z,10.60
2018-12-22T01:32:04.528Z,10.60
2018-12-22T01:34:33.259Z,10.60
2018-12-22T01:37:01.832Z,10.70
2018-12-22T01:39:30.317Z,10.60
2018-12-22T01:41:58.851Z,10.60
2018-12-22T01:44:27.332Z,10.60
2018-12-22T01:46:55.997Z,10.60
2018-12-22T01:49:26.519Z,10.60
2018-12-22T01:51:55.225Z,10.60
2018-12-22T01:54:23.845Z,10.60
2018-12-22T01:56:52.353Z,10.60
2018-12-22T01:59:20.855Z,10.60
2018-12-22T02:01:49.404Z,10.60
2018-12-22T02:04:18.105Z,10.60
2018-12-22T02:06:46.677Z,10.60
2018-12-22T02:09:15.205Z,10.70
2018-12-22T02:11:43.721Z,10.70
2018-12-22T02:14:12.455Z,10.70
2018-12-22T02:16:41.015Z,10.70
2018-12-22T02:19:09.487Z,10.70
2018-12-22T02:21:38.378Z,10.70
2018-12-22T02:24:07.093Z,10.70
2018-12-22T02:26:35.572Z,10.70
2018-12-22T02:29:04.182Z,10.70
2018-12-22T02:31:32.956Z,10.70
2018-12-22T02:34:01.543Z,10.50
2018-12-22T02:36:30.152Z,10.40
2018-12-22T02:38:58.761Z,10.40
2018-12-22T02:41:27.356Z,10.40
2018-12-22T02:43:55.873Z,10.40
2018-12-22T02:46:24.438Z,10.40
2018-12-22T02:48:52.983Z,10.40
2018-12-22T02:51:21.492Z,10.40
2018-12-22T02:53:50.007Z,10.40
2018-12-22T02:56:18.719Z,10.40
2018-12-22T02:58:47.304Z,10.40
2018-12-22T03:01:15.843Z,10.30
2018-12-22T03:03:44.451Z,10.30
2018-12-22T03:06:13.020Z,10.30
2018-12-22T03:08:41.522Z,10.30
2018-12-22T03:11:10.083Z,10.20
2018-12-22T03:13:39.515Z,10.20
2018-12-22T03:16:08.087Z,10.20
2018-12-22T03:18:36.680Z,10.30
2018-12-22T03:21:05.168Z,10.30
2018-12-22T03:23:33.666Z,10.30
2018-12-22T03:26:02.163Z,10.40
2018-12-22T03:28:30.688Z,10.40
2018-12-22T03:30:59.269Z,10.50
2018-12-22T03:33:27.777Z,10.60
2018-12-22T03:35:56.459Z,10.60
2018-12-22T03:38:24.942Z,10.60
2018-12-22T03:40:53.441Z,10.60
2018-12-22T03:43:22.111Z,10.70
2018-12-22T03:45:50.701Z,10.70
2018-12-22T03:48:19.284Z,10.50
2018-12-22T03:50:47.866Z,10.70
2018-12-22T03:53:16.653Z,10.70
2018-12-22T03:55:45.139Z,10.70
2018-12-22T03:58:13.808Z,10.70
2018-12-22T04:00:42.403Z,10.70
2018-12-22T04:03:12.040Z,10.70
2018-12-22T04:05:40.804Z,10.70
2018-12-22T04:08:09.318Z,10.70
2018-12-22T04:10:37.860Z,10.80
2018-12-22T04:13:06.468Z,10.80
2018-12-22T04:15:35.067Z,10.80
2018-12-22T04:18:03.562Z,10.80
2018-12-22T04:20:32.115Z,10.90
2018-12-22T04:23:00.618Z,10.90
2018-12-22T04:25:29.105Z,11.00
2018-12-22T04:27:57.615Z,11.00
2018-12-22T04:30:26.266Z,11.00
2018-12-22T04:32:54.749Z,11.00
2018-12-22T04:35:23.381Z,11.00
2018-12-22T04:37:51.882Z,11.00
2018-12-22T04:40:20.409Z,11.00
2018-12-22T04:42:48.928Z,11.00
2018-12-22T04:45:17.442Z,11.10
2018-12-22T04:47:45.930Z,11.00
2018-12-22T04:50:14.424Z,11.00
2018-12-22T04:52:43.021Z,11.00
2018-12-22T04:55:11.502Z,11.10
2018-12-22T04:57:39.990Z,11.10
2018-12-22T05:00:10.476Z,11.20
2018-12-22T05:02:38.978Z,11.20
2018-12-22T05:05:07.738Z,11.20
2018-12-22T05:07:36.432Z,11.20
2018-12-22T05:10:05.541Z,11.20
2018-12-22T05:12:34.156Z,11.20
2018-12-22T05:15:03.050Z,11.30
2018-12-22T05:17:31.562Z,11.30
2018-12-22T05:20:00.192Z,11.30
2018-12-22T05:22:28.751Z,11.30
2018-12-22T05:24:57.346Z,11.20
2018-12-22T05:27:25.879Z,11.10
2018-12-22T05:29:54.361Z,11.00
2018-12-22T05:32:28.551Z,11.00
2018-12-22T05:34:57.083Z,11.10
2018-12-22T05:37:25.667Z,11.10
2018-12-22T05:39:54.376Z,11.10
2018-12-22T05:42:22.924Z,11.10
2018-12-22T05:44:51.404Z,11.10
2018-12-22T05:47:19.926Z,11.10
2018-12-22T05:49:48.497Z,11.10
2018-12-22T05:52:17.215Z,11.00
2018-12-22T05:54:45.795Z,11.00
2018-12-22T05:57:14.490Z,10.90
2018-12-22T05:59:42.999Z,10.80
2018-12-22T06:02:11.501Z,10.70
2018-12-22T06:04:40.005Z,10.60
2018-12-22T06:07:08.478Z,10.60
2018-12-22T06:09:37.017Z,10.40
2018-12-22T06:12:05.501Z,10.30
2018-12-22T06:14:34.077Z,10.10
2018-12-22T06:17:02.597Z,9.90
2018-12-22T06:19:31.231Z,9.90
2018-12-22T06:21:59.777Z,9.80
2018-12-22T06:24:28.398Z,9.80
2018-12-22T06:26:57.153Z,9.70
2018-12-22T06:29:25.644Z,9.70
2018-12-22T06:31:54.476Z,9.60
2018-12-22T06:34:23.068Z,9.60
2018-12-22T06:37:05.043Z,9.60
2018-12-22T06:39:33.532Z,9.70
2018-12-22T06:42:02.140Z,9.70
2018-12-22T06:44:30.607Z,9.70
2018-12-22T06:46:59.182Z,9.70
2018-12-22T06:49:27.693Z,9.80
2018-12-22T06:51:56.305Z,9.80
2018-12-22T06:54:24.803Z,9.90
2018-12-22T06:56:53.309Z,9.90
2018-12-22T06:59:21.809Z,9.90
2018-12-22T07:01:50.382Z,9.90
2018-12-22T07:04:18.986Z,9.90
2018-12-22T07:06:47.466Z,9.90
2018-12-22T07:09:16.028Z,10.00
2018-12-22T07:11:44.738Z,10.00
2018-12-22T07:14:13.314Z,10.00
2018-12-22T07:16:41.792Z,10.10
2018-12-22T07:19:10.325Z,10.10
2018-12-22T07:21:39.156Z,10.20
2018-12-22T07:24:08.244Z,10.20
2018-12-22T07:26:36.721Z,10.20
2018-12-22T07:29:05.328Z,10.20
2018-12-22T07:31:33.806Z,10.20
2018-12-22T07:34:02.386Z,10.20
2018-12-22T07:36:30.912Z,10.20
2018-12-22T07:38:59.431Z,10.20
2018-12-22T07:41:27.969Z,10.30
2018-12-22T07:43:56.519Z,10.30
2018-12-22T07:46:25.101Z,10.30
2018-12-22T07:48:53.562Z,10.40
2018-12-22T07:51:22.073Z,10.30
2018-12-22T07:53:50.549Z,10.10
2018-12-22T07:56:19.125Z,10.10
2018-12-22T07:58:47.741Z,10.00
2018-12-22T08:01:16.251Z,10.00
2018-12-22T08:03:44.773Z,10.00
2018-12-22T08:06:13.319Z,10.00
2018-12-22T08:08:41.841Z,10.00
2018-12-22T08:11:10.416Z,10.00
2018-12-22T08:13:38.959Z,10.00
2018-12-22T08:16:07.602Z,10.10
2018-12-22T08:18:36.128Z,10.10
2018-12-22T08:21:04.767Z,10.20
2018-12-22T08:23:33.309Z,10.20
2018-12-22T08:26:01.927Z,10.20
2018-12-22T08:28:30.630Z,10.30
2018-12-22T08:30:59.142Z,10.30
2018-12-22T08:33:27.737Z,10.40
2018-12-22T08:35:56.375Z,10.40
2018-12-22T08:38:24.948Z,10.40
2018-12-22T08:40:53.439Z,10.40
2018-12-22T08:43:22.031Z,10.40
2018-12-22T08:45:50.725Z,10.30
2018-12-22T08:48:19.387Z,10.30
2018-12-22T08:50:48.184Z,10.40
2018-12-22T08:53:16.718Z,10.40
2018-12-22T08:55:45.382Z,10.40
2018-12-22T08:58:14.016Z,10.40
2018-12-22T09:00:42.630Z,10.40
2018-12-22T09:03:11.155Z,10.40
2018-12-22T09:05:39.685Z,10.40
2018-12-22T09:08:08.285Z,10.40
2018-12-22T09:10:36.927Z,10.50
2018-12-22T09:13:05.494Z,10.50
2018-12-22T09:15:34.137Z,10.60
2018-12-22T09:18:02.761Z,10.70
2018-12-22T09:20:31.839Z,10.70
2018-12-22T09:23:00.647Z,10.70
2018-12-22T09:25:29.152Z,10.70
2018-12-22T09:27:57.648Z,10.70
2018-12-22T09:30:26.356Z,10.70
2018-12-22T09:32:54.902Z,10.70
2018-12-22T09:35:23.526Z,10.70
2018-12-22T09:37:52.028Z,10.60
2018-12-22T09:40:20.686Z,10.60
2018-12-22T09:42:49.223Z,10.60
2018-12-22T09:45:17.750Z,10.60
2018-12-22T09:47:46.356Z,10.70
2018-12-22T09:50:14.985Z,10.70
2018-12-22T09:52:43.611Z,10.70
2018-12-22T09:55:12.436Z,10.70
2018-12-22T09:57:40.993Z,10.80
2018-12-22T10:00:12.084Z,10.80
2018-12-22T10:02:40.979Z,10.90
2018-12-22T10:05:09.823Z,10.90
2018-12-22T10:07:38.397Z,10.90
2018-12-22T10:10:11.781Z,11.00
2018-12-22T10:12:40.277Z,11.00
2018-12-22T10:15:09.293Z,11.10
2018-12-22T10:17:38.261Z,11.10
2018-12-22T10:20:08.357Z,11.10
2018-12-22T10:22:36.929Z,11.20
2018-12-22T10:25:08.827Z,11.30
2018-12-22T10:27:37.514Z,11.30
2018-12-22T10:30:16.090Z,11.40
2018-12-22T10:32:44.820Z,11.50
2018-12-22T10:35:27.951Z,11.50
2018-12-22T10:37:56.561Z,11.50
2018-12-22T10:40:25.514Z,11.50
2018-12-22T10:42:54.329Z,11.60
2018-12-22T10:45:22.909Z,11.70
2018-12-22T10:47:51.513Z,11.70
2018-12-22T10:50:20.171Z,11.70
2018-12-22T10:52:49.752Z,11.60
2018-12-22T10:55:18.479Z,11.60
2018-12-22T10:57:47.176Z,11.50
2018-12-22T11:00:17.362Z,11.50
2018-12-22T11:02:45.843Z,11.40
2018-12-22T11:05:15.985Z,11.40
2018-12-22T11:07:44.866Z,11.40
2018-12-22T11:10:20.439Z,11.40
2018-12-22T11:12:49.411Z,11.50
2018-12-22T11:15:18.031Z,11.50
2018-12-22T11:17:46.580Z,11.50
2018-12-22T11:20:15.162Z,11.50
2018-12-22T11:22:43.834Z,11.40
2018-12-22T11:25:15.439Z,11.40
2018-12-22T11:27:44.294Z,11.50
2018-12-22T11:30:17.396Z,11.50
2018-12-22T11:32:45.902Z,11.50
2018-12-22T11:35:14.452Z,11.50
2018-12-22T11:37:43.042Z,11.50
2018-12-22T11:40:11.732Z,11.50
2018-12-22T11:42:47.403Z,11.50
2018-12-22T11:45:11.024Z,11.50
2018-12-22T11:47:48.316Z,11.60
2018-12-22T11:50:21.102Z,11.60
2018-12-22T11:52:49.710Z,11.50
2018-12-22T11:55:18.186Z,11.50
2018-12-22T11:57:46.788Z,11.50
2018-12-22T12:00:15.449Z,11.40
2018-12-22T12:02:44.027Z,11.40
2018-12-22T12:05:15.604Z,11.40
2018-12-22T12:07:44.477Z,11.40
2018-12-22T12:10:13.044Z,11.40
2018-12-22T12:12:41.524Z,11.40
2018-12-22T12:15:14.532Z,11.40
2018-12-22T12:18:26.294Z,11.40
2018-12-22T12:20:54.914Z,11.40
2018-12-22T12:23:23.556Z,11.40
2018-12-22T12:25:52.302Z,11.50
2018-12-22T12:28:20.915Z,11.60
2018-12-22T12:30:49.436Z,11.70
2018-12-22T12:33:17.963Z,11.70
2018-12-22T12:35:46.535Z,11.80
2018-12-22T12:38:15.088Z,11.70
2018-12-22T12:40:43.790Z,11.70
2018-12-22T12:43:12.338Z,11.70
2018-12-22T12:45:41.075Z,11.70
2018-12-22T12:48:09.594Z,11.60
2018-12-22T12:50:38.644Z,11.60
2018-12-22T12:53:09.731Z,11.70
2018-12-22T12:55:37.958Z,11.80
2018-12-22T12:58:06.446Z,11.70
2018-12-22T13:00:35.343Z,11.80
2018-12-22T13:03:03.980Z,11.80
2018-12-22T13:05:32.465Z,11.80
2018-12-22T13:08:00.956Z,11.80
2018-12-22T13:10:29.479Z,11.80
2018-12-22T13:13:10.784Z,11.80
2018-12-22T13:15:39.320Z,11.80
2018-12-22T13:18:07.904Z,11.80
2018-12-22T13:20:36.411Z,11.70
2018-12-22T13:23:04.995Z,11.70
2018-12-22T13:25:33.686Z,11.60
2018-12-22T13:28:02.311Z,11.50
2018-12-22T13:30:30.946Z,11.50
2018-12-22T13:33:00.143Z,11.50
2018-12-22T13:35:28.796Z,11.50
2018-12-22T13:37:57.280Z,11.40
2018-12-22T13:40:26.029Z,11.40
2018-12-22T13:42:54.555Z,11.40
2018-12-22T13:45:23.090Z,11.50
2018-12-22T13:47:52.412Z,11.50
2018-12-22T13:50:22.164Z,11.50
2018-12-22T13:52:50.862Z,11.50
2018-12-22T13:55:19.358Z,11.50
2018-12-22T13:57:48.420Z,11.50
2018-12-22T14:00:17.133Z,11.40
2018-12-22T14:02:45.614Z,11.40
2018-12-22T14:05:18.013Z,11.40
2018-12-22T14:07:46.503Z,11.30
2018-12-22T14:10:15.267Z,11.40
2018-12-22T14:12:43.837Z,11.40
2018-12-22T14:15:15.579Z,11.50
2018-12-22T14:17:58.208Z,11.50
2018-12-22T14:20:27.572Z,11.50
2018-12-22T14:22:57.021Z,11.50
2018-12-22T14:25:28.146Z,11.50
2018-12-22T14:27:56.666Z,11.50
2018-12-22T14:30:25.543Z,11.50
2018-12-22T14:32:54.047Z,11.50
2018-12-22T14:35:37.250Z,11.60
2018-12-22T14:38:06.034Z,11.60
2018-12-22T14:40:34.705Z,11.60
2018-12-22T14:43:03.404Z,11.60
2018-12-22T14:45:32.003Z,11.50
2018-12-22T14:48:00.677Z,11.50
2018-12-22T14:50:29.193Z,11.50
2018-12-22T14:52:57.767Z,11.40
2018-12-22T14:55:29.179Z,11.40
2018-12-22T14:58:01.659Z,11.40
2018-12-22T15:00:30.192Z,11.40
2018-12-22T15:02:58.673Z,11.40
2018-12-22T15:05:27.237Z,11.40
2018-12-22T15:07:55.801Z,11.30
2018-12-22T15:10:24.298Z,11.30
2018-12-22T15:12:52.835Z,11.30
2018-12-22T15:15:21.658Z,11.20
2018-12-22T15:17:50.453Z,11.20
2018-12-22T15:20:20.944Z,11.10
2018-12-22T15:22:49.457Z,11.10
2018-12-22T15:25:17.969Z,11.10
2018-12-22T15:27:46.496Z,11.00
2018-12-22T15:30:15.217Z,10.90
2018-12-22T15:32:44.444Z,10.90
2018-12-22T15:35:14.556Z,10.80
2018-12-22T15:37:43.121Z,10.80
2018-12-22T15:40:11.800Z,10.80
2018-12-22T15:42:40.491Z,10.70
2018-12-22T15:45:11.848Z,10.70
2018-12-22T15:47:41.041Z,10.60
2018-12-22T15:50:12.154Z,10.50
2018-12-22T15:52:40.824Z,10.50
2018-12-22T15:55:09.838Z,10.40
2018-12-22T15:57:38.545Z,10.30
2018-12-22T16:00:09.542Z,10.30
2018-12-22T16:02:38.006Z,10.20
2018-12-22T16:05:07.966Z,10.20
2018-12-22T16:07:36.577Z,10.20
2018-12-22T16:10:08.096Z,10.20
2018-12-22T16:12:36.768Z,10.10
2018-12-22T16:15:07.466Z,10.10
2018-12-22T16:17:35.949Z,10.00
2018-12-22T16:20:04.807Z,10.00
2018-12-22T16:22:33.295Z,10.00
2018-12-22T16:25:01.910Z,9.90
2018-12-22T16:27:30.669Z,9.90
2018-12-22T16:29:59.380Z,9.80
2018-12-22T16:32:28.034Z,9.80
2018-12-22T16:34:56.542Z,9.80
2018-12-22T16:37:25.050Z,9.80
2018-12-22T16:39:53.593Z,9.80
2018-12-22T16:42:22.266Z,9.80
2018-12-22T16:44:51.005Z,9.80
2018-12-22T16:47:19.564Z,9.80
2018-12-22T16:49:48.152Z,9.80
2018-12-22T16:52:16.715Z,9.80
2018-12-22T16:54:45.240Z,9.80
2018-12-22T16:57:13.807Z,9.80
2018-12-22T16:59:42.299Z,9.80
2018-12-22T17:02:18.832Z,9.80
2018-12-22T17:04:47.625Z,9.80
2018-12-22T17:07:16.219Z,9.90
2018-12-22T17:09:44.739Z,9.80
2018-12-22T17:12:13.319Z,9.80
2018-12-22T17:14:42.169Z,9.70
2018-12-22T17:17:10.736Z,9.70
2018-12-22T17:19:39.367Z,9.60
2018-12-22T17:22:17.723Z,9.60
2018-12-22T17:24:57.948Z,9.50
2018-12-22T17:27:26.553Z,9.50
2018-12-22T17:29:55.185Z,9.40
2018-12-22T17:32:23.783Z,9.40
2018-12-22T17:34:52.535Z,9.40
2018-12-22T17:37:21.242Z,9.40
2018-12-22T17:39:53.537Z,9.40
2018-12-22T17:42:20.967Z,9.40
2018-12-22T17:44:49.756Z,9.30
2018-12-22T17:47:18.457Z,9.30
2018-12-22T17:49:47.033Z,9.20
2018-12-22T17:52:15.654Z,9.10
2018-12-22T17:54:44.161Z,9.10
2018-12-22T17:57:12.778Z,9.10
2018-12-22T17:59:41.360Z,9.10
2018-12-22T18:02:09.955Z,9.00
2018-12-22T18:04:38.727Z,9.10
2018-12-22T18:07:07.262Z,9.10
2018-12-22T18:09:35.927Z,9.00
2018-12-22T18:12:04.697Z,9.00
2018-12-22T18:14:33.280Z,9.00
2018-12-22T18:17:01.919Z,9.10
2018-12-22T18:19:30.472Z,9.10
2018-12-22T18:21:59.032Z,9.00
2018-12-22T18:24:27.522Z,9.00
2018-12-22T18:26:56.094Z,9.00
2018-12-22T18:29:24.789Z,8.90
2018-12-22T18:31:53.319Z,8.90
2018-12-22T18:34:21.926Z,8.90
2018-12-22T18:36:50.653Z,8.90
2018-12-22T18:39:19.169Z,8.90
2018-12-22T18:41:47.925Z,9.00
2018-12-22T18:44:16.469Z,9.00
2018-12-22T18:46:45.105Z,9.10
2018-12-22T18:49:13.625Z,9.10
2018-12-22T18:51:42.349Z,9.10
2018-12-22T18:54:11.342Z,9.10
2018-12-22T18:56:39.934Z,9.10
2018-12-22T18:59:08.535Z,9.10
2018-12-22T19:01:37.026Z,9.00
2018-12-22T19:04:05.533Z,9.00
2018-12-22T19:06:34.045Z,9.00
2018-12-22T19:09:04.506Z,9.10
2018-12-22T19:11:33.242Z,9.20
2018-12-22T19:14:01.793Z,9.10
2018-12-22T19:16:30.321Z,9.20
2018-12-22T19:18:59.776Z,9.20
2018-12-22T19:21:28.310Z,9.10
2018-12-22T19:23:57.027Z,9.00
2018-12-22T19:26:25.619Z,9.00
2018-12-22T19:28:54.143Z,9.00
2018-12-22T19:31:22.682Z,9.10
2018-12-22T19:33:53.660Z,9.00
2018-12-22T19:36:22.485Z,9.00
2018-12-22T19:38:51.105Z,8.90
2018-12-22T19:41:19.605Z,8.90
2018-12-22T19:43:48.126Z,8.80
2018-12-22T19:46:16.738Z,8.80
2018-12-22T19:48:45.331Z,8.70
2018-12-22T19:51:13.904Z,8.70
2018-12-22T19:53:42.494Z,8.70
2018-12-22T19:56:11.042Z,8.70
2018-12-22T19:58:39.644Z,8.70
2018-12-22T20:01:08.260Z,8.70
2018-12-22T20:03:37.105Z,8.70
2018-12-22T20:06:05.976Z,8.70
2018-12-22T20:08:35.926Z,8.80
2018-12-22T20:11:07.319Z,8.80
2018-12-22T20:13:36.113Z,8.80
2018-12-22T20:16:09.030Z,8.90
2018-12-22T20:18:44.598Z,9.00
2018-12-22T20:21:15.934Z,8.90
2018-12-22T20:23:51.080Z,8.80
2018-12-22T20:26:23.087Z,8.80
2018-12-22T20:28:54.331Z,8.90
2018-12-22T20:31:28.461Z,8.90
2018-12-22T20:33:59.717Z,8.90
2018-12-22T20:36:33.279Z,8.90
2018-12-22T20:39:04.628Z,9.00
2018-12-22T20:41:36.421Z,9.00
2018-12-22T20:44:07.823Z,9.00
2018-12-22T20:46:45.332Z,9.00
2018-12-22T20:49:20.994Z,9.00
2018-12-22T20:51:54.316Z,8.90
2018-12-22T20:54:25.703Z,8.90
2018-12-22T20:56:58.708Z,8.90
2018-12-22T20:59:35.716Z,8.90
2018-12-22T21:02:10.409Z,8.90
2018-12-22T21:04:40.938Z,8.90
2018-12-22T21:07:16.364Z,8.90
2018-12-22T21:09:49.048Z,8.80
2018-12-22T21:12:20.915Z,8.80
2018-12-22T21:14:51.633Z,8.80
2018-12-22T21:17:29.113Z,8.70
2018-12-22T21:19:59.772Z,8.60
2018-12-22T21:22:37.189Z,8.60
2018-12-22T21:25:09.244Z,8.60
2018-12-22T21:27:41.185Z,8.60
2018-12-22T21:30:14.070Z,8.60
2018-12-22T21:32:46.850Z,8.60
2018-12-22T21:35:19.520Z,8.50
2018-12-22T21:37:54.336Z,8.50
2018-12-22T21:40:25.907Z,8.50
2018-12-22T21:43:03.282Z,8.40
2018-12-22T21:45:34.711Z,8.40
2018-12-22T21:48:07.321Z,8.40
2018-12-22T21:50:37.727Z,8.50
2018-12-22T21:53:10.648Z,8.50
2018-12-22T21:55:40.728Z,8.60
2018-12-22T21:58:14.762Z,8.60
2018-12-22T22:00:46.256Z,8.60
2018-12-22T22:03:20.844Z,8.60
2018-12-22T22:05:52.502Z,8.60
2018-12-22T22:08:24.203Z,8.70
2018-12-22T22:10:56.175Z,8.70
2018-12-22T22:13:27.137Z,8.70
2018-12-22T22:15:59.083Z,8.60
2018-12-22T22:18:29.804Z,8.60
2018-12-22T22:21:02.699Z,8.60
2018-12-22T22:23:33.950Z,8.60
2018-12-22T22:26:02.994Z,8.60
2018-12-22T22:28:31.862Z,8.60
2018-12-22T22:31:00.741Z,8.60
2018-12-22T22:33:29.627Z,8.60
2018-12-22T22:35:58.635Z,8.60
2018-12-22T22:38:28.281Z,8.50
2018-12-22T22:40:57.227Z,8.40
2018-12-22T22:43:26.006Z,8.30
2018-12-22T22:45:56.239Z,8.30
2018-12-22T22:48:25.534Z,8.20
2018-12-22T22:50:54.951Z,8.20
2018-12-22T22:53:24.364Z,8.10
2018-12-22T22:55:53.238Z,8.20
2018-12-22T22:58:23.236Z,8.20
2018-12-22T23:00:52.167Z,8.20
2018-12-22T23:03:21.129Z,8.20
2018-12-22T23:05:50.035Z,8.10
2018-12-22T23:08:18.841Z,8.10
2018-12-22T23:10:47.831Z,8.10
2018-12-22T23:13:16.813Z,8.10
2018-12-22T23:15:45.499Z,8.10
2018-12-22T23:18:14.594Z,8.10
2018-12-22T23:20:43.539Z,8.10
2018-12-22T23:23:12.629Z,8.00
2018-12-22T23:25:41.586Z,8.00
2018-12-22T23:30:52.153Z,8.00
2018-12-22T23:33:31.320Z,7.90
2018-12-22T23:36:03.058Z,7.90
2018-12-22T23:38:31.773Z,7.90
2018-12-22T23:41:00.858Z,7.80
2018-12-22T23:43:29.666Z,7.80
2018-12-22T23:45:58.957Z,7.80
2018-12-22T23:48:27.834Z,7.80
2018-12-22T23:50:56.823Z,7.80
2018-12-22T23:53:25.814Z,7.80
2018-12-22T23:55:54.708Z,7.70
2018-12-22T23:58:23.792Z,7.70
